createdAt,value
2019-01-25T00:01:52.869Z,29.50
2019-01-25T00:04:22.849Z,30.12
2019-01-25T00:06:52.815Z,32.50
2019-01-25T00:09:22.771Z,32.15
2019-01-25T00:11:52.822Z,31.10
2019-01-25T00:14:23.315Z,30.90
2019-01-25T00:16:56.388Z,31.33
2019-01-25T00:19:26.652Z,28.95
2019-01-25T00:21:57.486Z,30.70
2019-01-25T00:24:27.704Z,30.43
2019-01-25T00:26:57.785Z,30.00
2019-01-25T00:29:28.007Z,29.92
2019-01-25T00:31:58.051Z,30.37
2019-01-25T00:34:28.441Z,30.77
2019-01-25T00:36:58.571Z,28.10
2019-01-25T00:39:28.519Z,31.35
2019-01-25T00:41:59.353Z,30.72
2019-01-25T00:44:30.601Z,31.50
2019-01-25T00:47:01.285Z,31.77
2019-01-25T00:49:31.429Z,32.90
2019-01-25T00:52:03.628Z,32.85
2019-01-25T00:54:33.852Z,31.40
2019-01-25T00:57:04.004Z,30.90
2019-01-25T00:59:36.610Z,30.60
2019-01-25T01:02:06.630Z,30.37
2019-01-25T01:04:36.875Z,31.37
2019-01-25T01:07:06.883Z,29.37
2019-01-25T01:09:36.966Z,30.90
2019-01-25T01:12:06.934Z,30.77
2019-01-25T01:14:39.795Z,32.28
2019-01-25T01:17:09.894Z,29.85
2019-01-25T01:19:39.836Z,32.83
2019-01-25T01:22:09.875Z,29.87
2019-01-25T01:24:39.844Z,29.92
2019-01-25T01:27:09.808Z,29.40
2019-01-25T01:29:39.750Z,29.18
2019-01-25T01:32:09.716Z,28.35
2019-01-25T01:34:39.681Z,28.73
2019-01-25T01:37:09.619Z,29.02
2019-01-25T01:39:41.660Z,30.32
2019-01-25T01:42:11.541Z,29.67
2019-01-25T01:44:42.782Z,30.48
2019-01-25T01:47:12.759Z,30.55
2019-01-25T01:49:42.852Z,30.72
2019-01-25T01:52:12.801Z,30.08
2019-01-25T01:54:42.956Z,29.87
2019-01-25T01:57:13.386Z,31.25
2019-01-25T01:59:43.408Z,30.80
2019-01-25T02:02:13.710Z,28.57
2019-01-25T02:04:43.934Z,31.35
2019-01-25T02:07:14.064Z,31.60
2019-01-25T02:09:43.992Z,32.78
2019-01-25T02:12:16.664Z,28.98
2019-01-25T02:14:49.779Z,31.37
2019-01-25T02:17:19.916Z,34.88
2019-01-25T02:19:51.306Z,35.95
2019-01-25T02:22:21.624Z,38.48
2019-01-25T02:24:51.540Z,40.60
2019-01-25T02:27:21.649Z,40.10
2019-01-25T02:29:53.095Z,41.53
2019-01-25T02:32:23.063Z,42.43
2019-01-25T02:34:53.110Z,43.52
2019-01-25T02:37:22.928Z,40.17
2019-01-25T02:39:52.885Z,41.23
2019-01-25T02:42:22.878Z,43.28
2019-01-25T02:44:53.220Z,42.17
2019-01-25T02:47:23.208Z,43.23
2019-01-25T02:49:53.499Z,45.17
2019-01-25T02:52:23.340Z,43.08
2019-01-25T02:54:53.739Z,44.00
2019-01-25T02:57:25.371Z,44.55
2019-01-25T02:59:55.311Z,43.48
2019-01-25T03:02:25.218Z,43.33
2019-01-25T03:04:55.286Z,45.30
2019-01-25T03:07:25.282Z,44.33
2019-01-25T03:09:56.009Z,45.95
2019-01-25T03:12:25.950Z,46.00
2019-01-25T03:15:01.565Z,46.00
2019-01-25T03:17:31.651Z,43.28
2019-01-25T03:20:02.071Z,39.60
2019-01-25T03:22:32.082Z,45.55
2019-01-25T03:25:02.060Z,42.55
2019-01-25T03:27:32.035Z,46.75
2019-01-25T03:30:01.991Z,46.33
2019-01-25T03:32:32.021Z,43.75
2019-01-25T03:35:01.883Z,47.38
2019-01-25T03:37:31.903Z,45.52
2019-01-25T03:40:01.793Z,43.95
2019-01-25T03:42:31.831Z,46.50
2019-01-25T03:45:02.643Z,45.03
2019-01-25T03:47:35.594Z,44.15
2019-01-25T03:50:07.179Z,47.38
2019-01-25T03:52:37.119Z,45.70
2019-01-25T03:55:08.627Z,45.30
2019-01-25T03:57:38.541Z,44.53
2019-01-25T04:00:24.198Z,46.02
2019-01-25T04:02:57.711Z,46.98
2019-01-25T04:05:28.881Z,47.40
2019-01-25T04:07:58.821Z,44.50
2019-01-25T04:10:29.253Z,43.55
2019-01-25T04:13:00.883Z,46.85
2019-01-25T04:15:32.870Z,45.83
2019-01-25T04:18:02.811Z,47.98
2019-01-25T04:20:32.838Z,47.75
2019-01-25T04:23:07.863Z,43.50
2019-01-25T04:25:40.825Z,42.10
2019-01-25T04:28:10.767Z,45.95
2019-01-25T04:30:40.815Z,45.20
2019-01-25T04:33:10.773Z,45.85
2019-01-25T04:35:40.833Z,45.63
2019-01-25T04:38:13.401Z,46.92
2019-01-25T04:40:47.036Z,44.15
2019-01-25T04:43:18.410Z,48.00
2019-01-25T04:45:49.804Z,48.60
2019-01-25T04:48:19.981Z,46.75
2019-01-25T04:50:50.034Z,46.68
2019-01-25T04:53:19.984Z,46.48
2019-01-25T04:55:50.062Z,49.18
2019-01-25T04:58:20.391Z,45.95
2019-01-25T05:00:52.714Z,46.45
2019-01-25T05:03:22.761Z,44.42
2019-01-25T05:05:55.352Z,46.23
2019-01-25T05:08:25.357Z,44.60
2019-01-25T05:10:55.485Z,44.88
2019-01-25T05:13:25.519Z,45.15
2019-01-25T05:15:55.577Z,46.85
2019-01-25T05:18:25.633Z,45.75
2019-01-25T05:20:55.898Z,45.73
2019-01-25T05:23:28.915Z,49.98
2019-01-25T05:26:01.600Z,47.05
2019-01-25T05:28:31.663Z,50.75
2019-01-25T05:31:09.950Z,48.90
2019-01-25T05:33:40.170Z,48.10
2019-01-25T05:36:10.116Z,47.70
2019-01-25T05:38:45.967Z,48.25
2019-01-25T05:41:15.931Z,48.05
2019-01-25T05:43:48.587Z,47.93
2019-01-25T05:46:18.766Z,49.40
2019-01-25T05:48:49.234Z,46.90
2019-01-25T05:51:19.279Z,46.90
2019-01-25T05:53:53.437Z,51.15
2019-01-25T05:56:23.950Z,48.78
2019-01-25T05:58:56.878Z,47.48
2019-01-25T06:01:26.884Z,52.23
2019-01-25T06:03:56.909Z,48.17
2019-01-25T06:06:26.871Z,50.40
2019-01-25T06:08:56.786Z,49.83
2019-01-25T06:11:27.602Z,49.38
2019-01-25T06:13:58.015Z,51.33
2019-01-25T06:16:29.752Z,48.35
2019-01-25T06:18:59.872Z,48.83
2019-01-25T06:21:29.735Z,48.92
2019-01-25T06:23:59.751Z,53.00
2019-01-25T06:26:29.853Z,51.50
2019-01-25T06:28:59.761Z,51.85
2019-01-25T06:31:29.796Z,51.10
2019-01-25T06:33:59.852Z,52.00
2019-01-25T06:36:29.816Z,51.92
2019-01-25T06:38:59.915Z,50.35
2019-01-25T06:41:30.038Z,50.17
2019-01-25T06:44:00.002Z,50.90
2019-01-25T06:46:30.023Z,50.58
2019-01-25T06:49:00.013Z,52.25
2019-01-25T06:51:30.028Z,52.60
2019-01-25T06:53:59.910Z,51.42
2019-01-25T06:56:29.898Z,52.13
2019-01-25T06:59:11.919Z,50.30
2019-01-25T07:02:07.401Z,50.70
2019-01-25T07:04:37.304Z,50.50
2019-01-25T07:07:11.348Z,51.37
2019-01-25T07:09:41.550Z,50.28
2019-01-25T07:12:11.883Z,51.30
2019-01-25T07:14:41.908Z,51.02
2019-01-25T07:17:12.226Z,54.08
2019-01-25T07:19:44.749Z,48.23
2019-01-25T07:22:14.767Z,52.23
2019-01-25T07:24:46.829Z,49.70
2019-01-25T07:27:16.958Z,49.15
2019-01-25T07:29:49.325Z,52.70
2019-01-25T07:32:20.404Z,48.92
2019-01-25T07:34:50.528Z,51.73
2019-01-25T07:37:20.587Z,51.88
2019-01-25T07:39:50.656Z,51.50
2019-01-25T07:42:20.951Z,50.85
2019-01-25T07:44:51.391Z,54.30
2019-01-25T07:47:21.737Z,50.78
2019-01-25T07:49:51.977Z,54.53
2019-01-25T07:52:21.937Z,52.08
2019-01-25T07:54:51.976Z,46.23
2019-01-25T07:57:22.246Z,51.75
2019-01-25T07:59:53.640Z,50.35
2019-01-25T08:02:23.722Z,51.40
2019-01-25T08:04:53.729Z,50.67
2019-01-25T08:07:23.775Z,50.63
2019-01-25T08:09:56.331Z,52.30
2019-01-25T08:12:26.366Z,49.08
2019-01-25T08:14:56.401Z,52.43
2019-01-25T08:17:26.477Z,53.08
2019-01-25T08:19:56.749Z,51.15
2019-01-25T08:22:26.960Z,51.10
2019-01-25T08:24:57.023Z,54.13
2019-01-25T08:27:27.012Z,50.08
2019-01-25T08:29:57.125Z,49.15
2019-01-25T08:32:27.185Z,51.20
2019-01-25T08:34:57.256Z,50.17
2019-01-25T08:37:27.373Z,48.38
2019-01-25T08:39:59.947Z,49.30
2019-01-25T08:42:30.232Z,47.55
2019-01-25T08:45:00.671Z,50.50
2019-01-25T08:47:31.535Z,50.43
2019-01-25T08:50:01.972Z,46.80
2019-01-25T08:52:33.571Z,48.45
2019-01-25T08:55:03.794Z,50.35
2019-01-25T08:57:33.965Z,46.20
2019-01-25T09:00:08.767Z,46.98
2019-01-25T09:02:39.995Z,41.77
2019-01-25T09:05:10.850Z,44.10
2019-01-25T09:07:41.336Z,44.35
2019-01-25T09:10:13.763Z,45.83
2019-01-25T09:12:46.595Z,41.40
2019-01-25T09:15:19.261Z,44.27
2019-01-25T09:17:51.021Z,44.70
2019-01-25T09:20:21.555Z,40.80
2019-01-25T09:23:04.218Z,44.55
2019-01-25T09:25:35.403Z,44.25
2019-01-25T09:28:05.761Z,40.58
2019-01-25T09:30:35.884Z,38.58
2019-01-25T09:33:08.191Z,39.50
2019-01-25T09:35:38.325Z,38.33
2019-01-25T09:38:10.885Z,30.85
2019-01-25T09:40:41.055Z,30.72
2019-01-25T09:43:13.376Z,29.40
2019-01-25T09:48:39.070Z,27.45
2019-01-25T09:51:12.335Z,25.77
2019-01-25T09:53:48.181Z,29.77
2019-01-25T09:56:19.797Z,26.65
2019-01-25T09:58:50.423Z,25.40
2019-01-25T10:01:20.994Z,29.42
2019-01-25T10:03:51.029Z,24.85
2019-01-25T10:06:20.989Z,24.27
2019-01-25T10:08:50.916Z,25.80
2019-01-25T10:11:22.502Z,25.75
2019-01-25T10:13:52.663Z,24.65
2019-01-25T10:16:23.781Z,26.77
2019-01-25T10:18:54.338Z,24.72
2019-01-25T10:21:24.309Z,23.42
2019-01-25T10:23:54.713Z,23.62
2019-01-25T10:26:44.085Z,21.70
2019-01-25T10:29:15.318Z,21.37
2019-01-25T10:31:45.532Z,22.10
2019-01-25T10:34:16.219Z,22.40
2019-01-25T10:36:46.644Z,22.95
2019-01-25T10:39:16.955Z,22.98
2019-01-25T10:44:44.386Z,18.92
2019-01-25T10:47:14.630Z,21.17
2019-01-25T10:49:44.646Z,20.20
2019-01-25T10:52:15.520Z,20.68
2019-01-25T10:54:45.652Z,19.73
2019-01-25T10:57:16.667Z,20.15
2019-01-25T10:59:46.628Z,18.57
2019-01-25T11:02:16.772Z,19.37
2019-01-25T11:04:50.916Z,21.75
2019-01-25T11:07:20.992Z,20.90
2019-01-25T11:10:00.892Z,22.15
2019-01-25T11:12:31.176Z,21.90
2019-01-25T11:15:01.500Z,21.68
2019-01-25T11:17:36.410Z,21.65
2019-01-25T11:20:03.246Z,21.70
2019-01-25T11:25:35.348Z,18.87
2019-01-25T11:28:06.429Z,21.37
2019-01-25T11:30:37.492Z,20.75
2019-01-25T11:33:07.465Z,21.05
2019-01-25T11:35:38.863Z,19.40
2019-01-25T11:38:08.834Z,19.02
2019-01-25T11:40:41.098Z,19.62
2019-01-25T11:43:11.068Z,19.45
2019-01-25T11:45:41.521Z,19.25
2019-01-25T11:48:15.582Z,22.65
2019-01-25T11:50:45.729Z,20.75
2019-01-25T11:53:15.769Z,20.50
2019-01-25T11:55:45.716Z,22.65
2019-01-25T11:58:15.679Z,22.75
2019-01-25T12:00:46.593Z,22.52
2019-01-25T12:03:16.561Z,22.77
2019-01-25T12:05:46.503Z,24.18
2019-01-25T12:08:16.538Z,22.13
2019-01-25T12:10:46.533Z,23.95
2019-01-25T12:13:16.960Z,24.77
2019-01-25T12:15:46.910Z,24.70
2019-01-25T12:18:16.826Z,23.55
2019-01-25T12:20:46.802Z,22.85
2019-01-25T12:23:16.759Z,23.27
2019-01-25T12:25:46.708Z,21.73
2019-01-25T12:28:16.736Z,23.50
2019-01-25T12:30:46.772Z,22.62
2019-01-25T12:33:16.704Z,23.07
2019-01-25T12:35:46.765Z,23.50
2019-01-25T12:38:16.797Z,23.25
2019-01-25T12:40:46.802Z,22.87
2019-01-25T12:43:23.696Z,22.13
2019-01-25T12:45:50.338Z,23.07
2019-01-25T12:48:20.575Z,22.93
2019-01-25T12:51:01.476Z,24.40
2019-01-25T12:53:32.305Z,21.10
2019-01-25T12:56:04.057Z,20.55
2019-01-25T12:58:35.831Z,20.88
2019-01-25T13:01:06.791Z,22.25
2019-01-25T13:03:36.797Z,22.75
2019-01-25T13:06:07.013Z,23.40
2019-01-25T13:08:37.049Z,21.85
2019-01-25T13:11:10.011Z,23.73
2019-01-25T13:13:40.053Z,20.20
2019-01-25T13:16:11.054Z,20.05
2019-01-25T13:18:41.253Z,21.12
2019-01-25T13:21:11.470Z,21.30
2019-01-25T13:23:42.003Z,20.68
2019-01-25T13:26:13.930Z,22.00
2019-01-25T13:28:44.138Z,20.48
2019-01-25T13:31:14.782Z,20.97
2019-01-25T13:33:45.870Z,17.80
2019-01-25T13:36:17.937Z,17.00
2019-01-25T13:38:48.107Z,19.32
2019-01-25T13:41:18.525Z,18.40
2019-01-25T13:43:48.858Z,17.90
2019-01-25T13:46:19.006Z,15.70
2019-01-25T13:48:50.529Z,14.90
2019-01-25T13:51:20.833Z,16.27
2019-01-25T13:53:51.001Z,16.62
2019-01-25T13:56:21.428Z,16.60
2019-01-25T13:58:51.392Z,17.52
2019-01-25T14:01:21.864Z,17.75
2019-01-25T14:03:53.192Z,16.70
2019-01-25T14:06:23.994Z,17.67
2019-01-25T14:08:54.026Z,18.73
2019-01-25T14:11:24.216Z,18.65
2019-01-25T14:13:54.406Z,18.80
2019-01-25T14:16:24.512Z,19.20
2019-01-25T14:18:54.791Z,17.17
2019-01-25T14:21:25.040Z,17.92
2019-01-25T14:23:58.362Z,18.73
2019-01-25T14:26:28.686Z,19.67
2019-01-25T14:28:58.832Z,18.60
2019-01-25T14:31:29.074Z,19.05
2019-01-25T14:33:59.363Z,20.02
2019-01-25T14:36:29.390Z,18.15
2019-01-25T14:38:59.317Z,19.67
2019-01-25T14:41:32.078Z,19.90
2019-01-25T14:44:02.197Z,20.70
2019-01-25T14:46:32.328Z,19.50
2019-01-25T14:49:02.390Z,19.42
2019-01-25T14:51:32.524Z,21.23
2019-01-25T14:54:02.795Z,18.30
2019-01-25T14:56:33.272Z,20.35
2019-01-25T14:59:04.204Z,19.35
2019-01-25T15:01:35.399Z,19.57
2019-01-25T15:04:08.194Z,20.35
2019-01-25T15:06:38.609Z,19.82
2019-01-25T15:09:09.940Z,19.75
2019-01-25T15:11:40.010Z,20.20
2019-01-25T15:14:10.325Z,20.92
2019-01-25T15:16:41.157Z,20.60
2019-01-25T15:19:12.433Z,19.87
2019-01-25T15:21:42.680Z,22.42
2019-01-25T15:24:12.625Z,21.30
2019-01-25T15:26:42.708Z,18.62
2019-01-25T15:29:15.960Z,19.12
2019-01-25T15:31:45.963Z,17.60
2019-01-25T15:34:16.043Z,20.08
2019-01-25T15:36:50.256Z,20.52
2019-01-25T15:39:20.315Z,19.57
2019-01-25T15:41:50.443Z,18.67
2019-01-25T15:44:20.975Z,19.32
2019-01-25T15:46:57.432Z,19.12
2019-01-25T15:49:29.357Z,20.57
2019-01-25T15:51:59.388Z,19.05
2019-01-25T15:54:29.510Z,18.62
2019-01-25T15:56:59.318Z,18.75
2019-01-25T15:59:29.564Z,19.90
2019-01-25T16:02:00.689Z,18.27
2019-01-25T16:04:35.082Z,18.02
2019-01-25T16:07:04.205Z,20.75
2019-01-25T16:09:34.237Z,22.60
2019-01-25T16:12:09.373Z,19.65
2019-01-25T16:14:39.429Z,20.35
2019-01-25T16:17:10.316Z,21.68
2019-01-25T16:19:42.666Z,20.92
2019-01-25T16:22:13.379Z,19.82
2019-01-25T16:24:44.390Z,20.97
2019-01-25T16:27:14.810Z,22.62
2019-01-25T16:29:45.669Z,21.02
2019-01-25T16:32:19.251Z,22.22
2019-01-25T16:34:49.656Z,21.40
2019-01-25T16:37:20.064Z,21.52
2019-01-25T16:39:50.360Z,21.25
2019-01-25T16:42:20.993Z,22.75
2019-01-25T16:44:51.643Z,21.77
2019-01-25T16:47:22.255Z,20.55
2019-01-25T16:49:55.823Z,19.98
2019-01-25T16:52:26.247Z,20.00
2019-01-25T16:55:00.258Z,22.25
2019-01-25T16:57:30.833Z,23.32
2019-01-25T17:00:01.515Z,19.75
2019-01-25T17:02:40.942Z,21.85
2019-01-25T17:05:11.837Z,21.82
2019-01-25T17:07:42.615Z,22.20
2019-01-25T17:10:13.817Z,22.52
2019-01-25T17:12:47.660Z,20.72
2019-01-25T17:15:26.686Z,21.73
2019-01-25T17:17:57.632Z,21.35
2019-01-25T17:20:31.962Z,21.40
2019-01-25T17:23:02.001Z,21.10
2019-01-25T17:25:32.070Z,22.67
2019-01-25T17:28:03.225Z,20.82
2019-01-25T17:30:35.199Z,21.50
2019-01-25T17:33:11.297Z,23.38
2019-01-25T17:35:51.378Z,21.23
2019-01-25T17:38:23.374Z,20.72
2019-01-25T17:40:53.622Z,21.33
2019-01-25T17:43:24.060Z,22.48
2019-01-25T17:45:54.467Z,22.05
2019-01-25T17:48:29.097Z,23.38
2019-01-25T17:50:59.536Z,23.32
2019-01-25T17:53:30.012Z,22.17
2019-01-25T17:56:00.608Z,23.98
2019-01-25T17:58:31.773Z,23.07
2019-01-25T18:01:02.128Z,23.30
2019-01-25T18:03:48.628Z,21.70
2019-01-25T18:06:25.739Z,24.85
2019-01-25T18:08:56.298Z,23.87
2019-01-25T18:11:29.132Z,24.00
2019-01-25T18:13:59.500Z,25.82
2019-01-25T18:16:29.664Z,27.25
2019-01-25T18:19:01.710Z,25.48
2019-01-25T18:21:34.155Z,23.18
2019-01-25T18:24:04.674Z,23.60
2019-01-25T18:26:34.772Z,23.35
2019-01-25T18:29:32.808Z,26.40
2019-01-25T18:32:04.666Z,23.65
2019-01-25T18:34:34.982Z,24.07
2019-01-25T18:37:05.268Z,23.92
2019-01-25T18:39:36.704Z,24.05
2019-01-25T18:42:08.772Z,22.45
2019-01-25T18:44:39.198Z,22.45
2019-01-25T18:47:09.695Z,25.17
2019-01-25T18:49:42.144Z,23.95
2019-01-25T18:52:14.646Z,24.98
2019-01-25T18:54:45.110Z,22.73
2019-01-25T18:57:17.271Z,23.85
2019-01-25T18:59:47.289Z,21.77
2019-01-25T19:02:17.391Z,22.93
2019-01-25T19:04:47.835Z,23.27
2019-01-25T19:07:18.073Z,22.70
2019-01-25T19:09:48.434Z,24.77
2019-01-25T19:12:20.520Z,23.18
2019-01-25T19:14:52.362Z,24.25
2019-01-25T19:17:22.672Z,23.83
2019-01-25T19:19:53.217Z,22.17
2019-01-25T19:22:28.062Z,22.58
2019-01-25T19:25:01.446Z,24.80
2019-01-25T19:27:31.816Z,24.55
2019-01-25T19:30:02.240Z,23.12
2019-01-25T19:33:23.940Z,21.10
2019-01-25T19:35:56.979Z,20.35
2019-01-25T19:38:27.479Z,22.42
2019-01-25T19:40:59.826Z,22.45
2019-01-25T19:43:30.579Z,22.90
2019-01-25T19:46:00.915Z,21.15
2019-01-25T19:48:32.719Z,19.42
2019-01-25T19:51:08.821Z,21.73
2019-01-25T19:53:39.738Z,21.02
2019-01-25T19:56:16.153Z,19.07
2019-01-25T19:58:48.513Z,19.45
2019-01-25T20:01:20.815Z,20.05
2019-01-25T20:03:51.230Z,17.70
2019-01-25T20:06:22.696Z,19.82
2019-01-25T20:08:57.554Z,22.25
2019-01-25T20:11:27.589Z,19.40
2019-01-25T20:14:03.907Z,18.12
2019-01-25T20:16:42.910Z,19.20
2019-01-25T20:19:22.406Z,18.27
2019-01-25T20:22:01.349Z,17.73
2019-01-25T20:24:49.690Z,17.90
2019-01-25T20:27:20.007Z,17.15
2019-01-25T20:30:01.463Z,18.10
2019-01-25T20:32:30.653Z,16.30
2019-01-25T20:35:02.639Z,17.82
2019-01-25T20:37:33.792Z,17.75
2019-01-25T20:40:31.781Z,15.85
2019-01-25T20:43:09.870Z,19.17
2019-01-25T20:45:40.470Z,18.48
2019-01-25T20:48:10.871Z,18.45
2019-01-25T20:50:43.487Z,19.37
2019-01-25T20:53:14.918Z,19.90
2019-01-25T20:56:04.507Z,19.45
2019-01-25T20:58:36.899Z,16.82
2019-01-25T21:01:07.068Z,20.20
2019-01-25T21:03:37.207Z,20.32
2019-01-25T21:06:08.027Z,20.08
2019-01-25T21:08:59.161Z,18.90
2019-01-25T21:11:34.043Z,20.08
2019-01-25T21:14:03.928Z,19.57
2019-01-25T21:16:41.074Z,21.48
2019-01-25T21:19:11.753Z,20.57
2019-01-25T21:21:48.325Z,21.05
2019-01-25T21:24:24.171Z,19.62
2019-01-25T21:27:03.967Z,21.17
2019-01-25T21:29:36.665Z,21.02
2019-01-25T21:32:10.955Z,21.93
2019-01-25T21:34:45.886Z,22.17
2019-01-25T21:37:18.519Z,23.65
2019-01-25T21:40:08.455Z,20.40
2019-01-25T21:42:34.987Z,21.48
2019-01-25T21:45:06.010Z,21.02
2019-01-25T21:47:36.790Z,20.23
2019-01-25T21:50:08.674Z,22.45
2019-01-25T21:52:43.733Z,23.18
2019-01-25T21:55:16.106Z,22.75
2019-01-25T21:57:52.120Z,22.00
2019-01-25T22:00:26.148Z,21.48
2019-01-25T22:02:56.559Z,22.35
2019-01-25T22:05:36.281Z,22.13
2019-01-25T22:08:07.932Z,23.12
2019-01-25T22:10:44.104Z,23.10
2019-01-25T22:13:17.016Z,22.70
2019-01-25T22:15:50.989Z,20.62
2019-01-25T22:18:24.747Z,21.20
2019-01-25T22:20:54.875Z,19.57
2019-01-25T22:23:24.947Z,17.98
2019-01-25T22:25:56.637Z,19.80
2019-01-25T22:28:26.674Z,18.07
2019-01-25T22:30:58.866Z,15.43
2019-01-25T22:33:29.119Z,14.95
2019-01-25T22:36:03.101Z,14.20
2019-01-25T22:38:33.350Z,12.88
2019-01-25T22:41:06.643Z,13.25
2019-01-25T22:43:36.681Z,11.83
2019-01-25T22:46:06.703Z,13.90
2019-01-25T22:48:36.986Z,12.07
2019-01-25T22:51:07.269Z,11.85
2019-01-25T22:53:37.396Z,9.95
2019-01-25T22:56:07.510Z,11.33
2019-01-25T22:58:37.594Z,10.23
2019-01-25T23:01:21.103Z,10.03
2019-01-25T23:04:16.747Z,10.43
2019-01-25T23:06:53.728Z,10.78
2019-01-25T23:09:50.267Z,11.25
2019-01-25T23:12:25.537Z,10.63
2019-01-25T23:14:55.566Z,10.30
2019-01-25T23:17:25.798Z,10.78
2019-01-25T23:19:55.945Z,9.53
2019-01-25T23:22:26.440Z,11.97
2019-01-25T23:24:56.817Z,10.60
2019-01-25T23:27:27.132Z,9.98
2019-01-25T23:29:57.277Z,9.73
2019-01-25T23:32:29.357Z,9.03
2019-01-25T23:34:59.453Z,10.15
2019-01-25T23:37:29.753Z,11.10
2019-01-25T23:39:59.947Z,8.30
2019-01-25T23:45:59.366Z,8.00
2019-01-25T23:48:50.943Z,6.78
2019-01-25T23:51:23.043Z,7.78
2019-01-25T23:53:52.759Z,5.45
2019-01-25T23:56:22.690Z,7.40
2019-01-25T23:58:52.628Z,6.95
